Time;durP1;ratioP1;P1;durP2;ratioP2;P2;SDS_P1;SDS_P2;PMS_P1;PMS_P2;Temp;Humidity;BMP_temperature;BMP_pressure;BME280_temperature;BME280_humidity;BME280_pressure;Samples;Min_cycle;Max_cycle;Signal;HPM_P1;HPM_P2
2023/04/11 00:00:19;;;;;;;7.55;4.75;;;;;;;12.28;100.00;100581.28;2080937;28;20037;-84
2023/04/11 00:01:42;;;;;;;9.63;4.60;;;;;;;12.27;100.00;100588.34;2080640;28;20103;-83
2023/04/11 00:03:05;;;;;;;7.03;4.60;;;;;;;12.22;100.00;100584.78;2079189;28;20597;-81
2023/04/11 00:04:27;;;;;;;8.70;5.22;;;;;;;12.16;100.00;100583.84;2079178;28;20053;-83
2023/04/11 00:05:49;;;;;;;9.63;5.60;;;;;;;12.14;100.00;100585.63;2070854;28;20533;-83
2023/04/11 00:07:11;;;;;;;11.02;6.72;;;;;;;12.18;100.00;100583.00;2078031;28;20049;-83
2023/04/11 00:08:33;;;;;;;14.68;8.57;;;;;;;12.18;100.00;100582.13;2073325;28;20498;-84
2023/04/11 00:09:55;;;;;;;31.35;18.50;;;;;;;12.11;100.00;100581.19;2077450;28;20042;-85
2023/04/11 00:11:18;;;;;;;13.27;8.77;;;;;;;12.08;100.00;100573.22;2072906;28;20108;-84
2023/04/11 00:12:39;;;;;;;13.38;7.50;;;;;;;12.12;100.00;100577.69;2081178;28;20554;-85
2023/04/11 00:14:04;;;;;;;15.27;8.05;;;;;;;12.16;100.00;100573.28;2065606;28;20058;-83
2023/04/11 00:15:27;;;;;;;13.07;7.28;;;;;;;12.16;100.00;100578.56;2070403;28;20184;-86
2023/04/11 00:16:48;;;;;;;12.13;7.38;;;;;;;12.13;100.00;100581.22;2087251;28;20037;-85
2023/04/11 00:18:11;;;;;;;12.02;7.55;;;;;;;12.08;100.00;100583.81;2073369;28;20054;-85
2023/04/11 00:19:32;;;;;;;11.63;7.63;;;;;;;12.08;100.00;100580.31;2078769;28;20050;-84
2023/04/11 00:20:55;;;;;;;13.13;7.68;;;;;;;12.09;100.00;100574.09;2073383;28;20773;-85
2023/04/11 00:22:16;;;;;;;13.02;8.30;;;;;;;12.08;100.00;100575.88;2066539;28;20062;-85
2023/04/11 00:23:39;;;;;;;12.30;8.18;;;;;;;12.09;100.00;100579.41;2071177;28;20058;-85
2023/04/11 00:25:00;;;;;;;13.82;8.75;;;;;;;12.10;100.00;100584.72;2065338;28;20278;-86
2023/04/11 00:26:22;;;;;;;17.88;9.02;;;;;;;12.12;100.00;100584.72;2076244;28;20093;-86
2023/04/11 00:27:45;;;;;;;13.40;8.90;;;;;;;12.12;100.00;100582.97;2068802;28;20054;-86
2023/04/11 00:29:08;;;;;;;16.25;9.20;;;;;;;12.13;100.00;100578.56;2084690;28;20181;-86
2023/04/11 00:30:30;;;;;;;13.57;8.75;;;;;;;12.11;100.00;100580.31;2087365;28;20049;-86
2023/04/11 00:31:54;;;;;;;14.05;8.07;;;;;;;12.08;100.00;100573.22;2072832;28;20104;-86
2023/04/11 00:33:16;;;;;;;14.40;8.25;;;;;;;12.04;100.00;100571.44;2070789;28;20936;-85
2023/04/11 00:34:38;;;;;;;14.65;8.93;;;;;;;11.98;100.00;100568.75;2068270;28;20136;-87
2023/04/11 00:36:00;;;;;;;15.10;10.30;;;;;;;11.90;100.00;100562.53;2060054;28;20046;-86
2023/04/11 00:37:21;;;;;;;17.10;9.63;;;;;;;11.85;100.00;100573.06;2065771;28;20097;-86
2023/04/11 00:38:45;;;;;;;12.98;8.10;;;;;;;11.84;100.00;100559.84;2076168;28;20057;-86
2023/04/11 00:40:07;;;;;;;16.33;9.05;;;;;;;11.86;100.00;100569.56;2079015;28;20099;-86
2023/04/11 00:41:30;;;;;;;14.45;9.57;;;;;;;11.86;100.00;100573.97;2080039;28;20421;-85
2023/04/11 00:42:52;;;;;;;33.65;29.70;;;;;;;11.83;100.00;100555.41;2077933;28;20057;-86
2023/04/11 00:44:16;;;;;;;14.95;11.32;;;;;;;11.82;100.00;100559.81;2078719;28;20389;-87
2023/04/11 00:45:38;;;;;;;20.42;13.63;;;;;;;11.83;100.00;100556.31;2078972;28;20113;-86
2023/04/11 00:47:02;;;;;;;21.25;11.93;;;;;;;11.84;100.00;100568.66;2073247;28;20704;-87
2023/04/11 00:48:27;;;;;;;22.20;13.15;;;;;;;11.85;100.00;100562.50;2071110;28;20045;-87
2023/04/11 00:49:50;;;;;;;24.85;20.05;;;;;;;11.83;100.00;100558.06;2070998;28;20117;-87
2023/04/11 00:51:17;;;;;;;21.20;15.38;;;;;;;11.76;100.00;100559.78;2067601;28;20470;-86
2023/04/11 00:52:39;;;;;;;25.05;14.85;;;;;;;11.72;100.00;100565.91;2061385;28;20133;-87
2023/04/11 00:54:02;;;;;;;22.10;15.13;;;;;;;11.76;100.00;100561.53;2067519;28;20064;-87
2023/04/11 00:55:25;;;;;;;21.40;13.68;;;;;;;11.83;100.00;100574.81;2062784;28;20070;-87
2023/04/11 00:56:48;;;;;;;22.23;13.07;;;;;;;11.89;100.00;100564.28;2071231;28;20050;-86
2023/04/11 00:58:11;;;;;;;19.42;13.00;;;;;;;11.93;100.00;100566.09;2070836;28;20149;-88
2023/04/11 00:59:34;;;;;;;40.05;25.08;;;;;;;11.96;100.00;100566.09;2072953;28;20037;-87
2023/04/11 01:00:57;;;;;;;36.22;23.13;;;;;;;11.96;100.00;100575.78;2070455;28;20454;-87
2023/04/11 01:02:19;;;;;;;21.02;13.10;;;;;;;12.02;100.00;100588.16;2062652;28;20149;-87
2023/04/11 01:03:43;;;;;;;19.85;11.98;;;;;;;12.05;100.00;100597.03;2068132;28;20056;-86
2023/04/11 01:05:06;;;;;;;26.20;16.65;;;;;;;12.07;100.00;100597.03;2062795;28;20050;-87
2023/04/11 01:06:31;;;;;;;19.52;12.95;;;;;;;12.09;100.00;100589.97;2062691;28;20074;-87
2023/04/11 01:07:54;;;;;;;23.38;14.07;;;;;;;12.09;100.00;100597.91;2068537;28;20054;-86
2023/04/11 01:09:16;;;;;;;17.58;11.23;;;;;;;12.08;100.00;100589.09;2061318;28;20533;-83
2023/04/11 01:10:42;;;;;;;20.88;11.18;;;;;;;12.07;100.00;100584.72;2067814;28;20457;-81
2023/04/11 01:12:06;;;;;;;20.75;10.40;;;;;;;12.06;100.00;100587.34;2076514;28;20460;-81
2023/04/11 01:13:40;;;;;;;18.63;9.85;;;;;;;12.04;100.00;100583.78;2078682;28;20061;-80
2023/04/11 01:15:05;;;;;;;15.07;7.13;;;;;;;12.03;100.00;100582.00;2079538;28;20087;-80
2023/04/11 01:16:27;;;;;;;12.93;5.60;;;;;;;11.99;100.00;100597.00;2062839;28;20461;-80
2023/04/11 01:17:48;;;;;;;15.30;7.03;;;;;;;11.95;100.00;100589.88;2065259;28;20042;-80
2023/04/11 01:19:11;;;;;;;17.27;6.97;;;;;;;11.90;100.00;100588.97;2075812;28;20061;-82
2023/04/11 01:20:33;;;;;;;17.35;9.27;;;;;;;11.85;100.00;100583.66;2078729;28;20116;-83
2023/04/11 01:21:58;;;;;;;18.23;9.25;;;;;;;11.83;100.00;100577.47;2069565;28;20462;-84
2023/04/11 01:23:22;;;;;;;14.73;7.70;;;;;;;11.84;100.00;100584.53;2062922;28;20491;-85
2023/04/11 01:24:51;;;;;;;14.82;6.88;;;;;;;11.88;100.00;100574.88;2068111;28;20053;-83
2023/04/11 01:26:13;;;;;;;14.30;5.72;;;;;;;11.88;100.00;100570.44;2071328;28;20137;-83
2023/04/11 01:27:36;;;;;;;15.35;7.15;;;;;;;11.89;100.00;100569.56;2062219;28;20061;-84
2023/04/11 01:28:57;;;;;;;14.35;6.53;;;;;;;11.90;100.00;100563.41;2070477;28;20077;-83
2023/04/11 01:30:21;;;;;;;24.10;14.18;;;;;;;11.91;100.00;100569.59;2066439;28;20565;-84
2023/04/11 01:31:44;;;;;;;25.48;17.25;;;;;;;11.91;100.00;100561.66;2075754;28;20053;-84
2023/04/11 01:33:06;;;;;;;14.32;8.63;;;;;;;11.92;100.00;100568.72;2086850;28;20068;-84
2023/04/11 01:34:29;;;;;;;13.27;6.82;;;;;;;11.96;100.00;100560.81;2078572;28;20116;-83
2023/04/11 01:35:52;;;;;;;10.35;5.53;;;;;;;12.00;100.00;100567.03;2076247;28;20053;-84
2023/04/11 01:37:15;;;;;;;10.23;5.20;;;;;;;12.03;100.00;100568.78;2072945;28;20041;-83
2023/04/11 01:38:39;;;;;;;9.02;5.28;;;;;;;12.03;100.00;100560.84;2082119;28;20057;-84
2023/04/11 01:40:04;;;;;;;9.63;5.28;;;;;;;12.03;100.00;100561.72;2073423;28;20050;-84
2023/04/11 01:41:26;;;;;;;11.95;5.28;;;;;;;12.04;100.00;100559.97;2084751;28;20098;-85
2023/04/11 01:42:50;;;;;;;11.43;5.53;;;;;;;12.03;100.00;100559.09;2072956;28;20045;-84
2023/04/11 01:44:15;;;;;;;11.75;6.18;;;;;;;12.04;100.00;100552.03;2084882;28;20584;-84
2023/04/11 01:45:38;;;;;;;10.43;5.05;;;;;;;12.03;100.00;100545.84;2072956;28;20038;-83
2023/04/11 01:47:00;;;;;;;8.02;5.03;;;;;;;12.05;100.00;100548.53;2069799;28;20617;-84
2023/04/11 01:48:23;;;;;;;9.18;4.47;;;;;;;12.04;100.00;100546.75;2083738;28;20044;-83
2023/04/11 01:49:44;;;;;;;10.20;5.10;;;;;;;12.04;100.00;100541.44;2081002;28;20076;-83
2023/04/11 01:51:07;;;;;;;10.88;4.97;;;;;;;12.04;100.00;100541.44;2083720;28;20052;-83
2023/04/11 01:52:30;;;;;;;11.20;5.53;;;;;;;12.04;100.00;100541.44;2078234;28;20176;-83
2023/04/11 01:53:53;;;;;;;8.90;5.45;;;;;;;12.02;100.00;100538.78;2078522;28;20041;-83
2023/04/11 01:55:15;;;;;;;10.20;6.05;;;;;;;12.00;100.00;100544.97;2075614;28;20054;-84
2023/04/11 01:56:36;;;;;;;11.20;5.78;;;;;;;11.94;100.00;100545.81;2084216;28;20558;-83
2023/04/11 01:57:59;;;;;;;10.05;5.38;;;;;;;11.88;100.00;100549.28;2069432;28;20077;-85
2023/04/11 01:59:20;;;;;;;10.80;6.22;;;;;;;11.88;100.00;100545.78;2061649;28;20431;-84
2023/04/11 02:00:43;;;;;;;13.35;6.22;;;;;;;11.85;100.00;100546.63;2067421;28;20502;-83
2023/04/11 02:02:05;;;;;;;9.73;6.10;;;;;;;11.86;100.00;100548.41;2061928;28;20039;-83
2023/04/11 02:03:26;;;;;;;9.80;5.82;;;;;;;11.85;100.00;100556.31;2059151;28;20050;-84
2023/04/11 02:04:50;;;;;;;19.10;12.50;;;;;;;11.79;100.00;100562.47;2076784;28;20081;-85
2023/04/11 02:06:12;;;;;;;19.90;13.95;;;;;;;11.77;100.00;100565.97;2064866;28;20046;-84
2023/04/11 02:07:36;;;;;;;20.63;13.50;;;;;;;11.75;100.00;100567.72;2062998;28;20042;-85
2023/04/11 02:09:04;;;;;;;19.85;13.98;;;;;;;11.76;100.00;100572.13;2076178;28;20661;-84
2023/04/11 02:10:25;;;;;;;23.63;13.65;;;;;;;11.75;100.00;100570.38;2070760;28;20071;-85
2023/04/11 02:11:48;;;;;;;23.15;15.95;;;;;;;11.73;100.00;100566.78;2075199;28;20072;-84
2023/04/11 02:13:10;;;;;;;20.17;12.48;;;;;;;11.71;100.00;100571.16;2078600;28;20042;-83
2023/04/11 02:14:42;;;;;;;15.65;9.63;;;;;;;11.71;100.00;100564.13;2072726;28;20060;-84
2023/04/11 02:16:08;;;;;;;14.45;8.63;;;;;;;11.69;100.00;100564.97;2062916;28;20046;-84
2023/04/11 02:17:30;;;;;;;14.45;10.07;;;;;;;11.68;100.00;100564.13;2075999;28;20128;-85
2023/04/11 02:18:52;;;;;;;21.02;11.18;;;;;;;11.71;100.00;100563.22;2073404;28;20049;-84
2023/04/11 02:20:16;;;;;;;12.52;7.00;;;;;;;11.72;100.00;100557.97;2067223;28;20045;-85
2023/04/11 02:21:37;;;;;;;12.05;7.20;;;;;;;11.76;100.00;100559.78;2069843;28;20056;-87
2023/04/11 02:23:03;;;;;;;14.60;6.70;;;;;;;11.76;100.00;100559.78;2067556;28;20084;-85
2023/04/11 02:24:27;;;;;;;13.32;7.25;;;;;;;11.76;100.00;100554.50;2067961;28;20080;-85
2023/04/11 02:25:53;;;;;;;11.52;6.70;;;;;;;11.76;100.00;100557.13;2062044;28;20442;-85
2023/04/11 02:27:14;;;;;;;14.60;8.65;;;;;;;11.76;100.00;100557.13;2067595;28;20076;-85
2023/04/11 02:28:37;;;;;;;13.32;7.55;;;;;;;11.76;100.00;100559.78;2062054;28;20156;-84
2023/04/11 02:30:00;;;;;;;14.95;7.15;;;;;;;11.79;100.00;100549.25;2071044;28;20102;-84
2023/04/11 02:31:21;;;;;;;11.82;5.72;;;;;;;11.83;100.00;100556.31;2084197;28;20145;-84
2023/04/11 02:32:45;;;;;;;13.77;6.88;;;;;;;11.84;100.00;100555.44;2085966;28;20044;-85
2023/04/11 02:34:10;;;;;;;10.48;6.10;;;;;;;11.85;100.00;100553.69;2078454;28;20049;-84
2023/04/11 02:35:33;;;;;;;10.57;6.05;;;;;;;11.81;100.00;100555.44;2077227;28;20044;-84
2023/04/11 02:36:55;;;;;;;12.35;6.13;;;;;;;11.79;100.00;100551.00;2077349;28;20042;-85
2023/04/11 02:38:17;;;;;;;8.70;5.18;;;;;;;11.79;100.00;100551.00;2077731;28;20485;-83
2023/04/11 02:39:41;;;;;;;12.48;6.20;;;;;;;11.79;100.00;100551.00;2069678;28;20060;-85
2023/04/11 02:41:02;;;;;;;9.10;5.75;;;;;;;11.80;100.00;100547.47;2067764;28;20556;-84
2023/04/11 02:42:28;;;;;;;14.23;5.78;;;;;;;11.81;100.00;100550.16;2069639;28;20158;-85
2023/04/11 02:43:50;;;;;;;11.02;6.32;;;;;;;11.80;100.00;100547.47;2077193;28;20140;-84
2023/04/11 02:45:13;;;;;;;7.05;4.82;;;;;;;11.79;100.00;100536.00;2077251;28;20560;-84
2023/04/11 02:46:34;;;;;;;11.00;6.43;;;;;;;11.82;100.00;100545.72;2071389;28;20489;-86
2023/04/11 02:47:58;;;;;;;12.43;6.88;;;;;;;11.85;100.00;100545.75;2072125;28;20037;-86
2023/04/11 02:49:21;;;;;;;10.27;5.97;;;;;;;11.86;100.00;100542.22;2069800;28;20056;-85
2023/04/11 02:50:43;;;;;;;11.30;5.80;;;;;;;11.87;100.00;100538.72;2066233;28;20054;-86
2023/04/11 02:52:06;;;;;;;15.32;6.10;;;;;;;11.84;100.00;100544.84;2067285;28;20038;-87
2023/04/11 02:53:28;;;;;;;10.77;5.80;;;;;;;11.81;100.00;100543.97;2067344;28;20148;-87
2023/04/11 02:54:52;;;;;;;;;;;;;;;11.77;100.00;100540.41;2075251;28;20041;-86
2023/04/11 02:56:17;;;;;;;9.35;5.53;;;;;;;11.74;100.00;100535.09;2072484;28;20077;-87
2023/04/11 02:57:39;;;;;;;10.32;5.78;;;;;;;11.75;100.00;100531.56;2069442;28;20065;-87
2023/04/11 02:59:06;;;;;;;11.15;6.47;;;;;;;11.76;100.00;100525.41;2071485;28;20057;-86
2023/04/11 03:00:31;;;;;;;9.88;5.53;;;;;;;11.77;100.00;100526.28;2064852;28;20096;-88
2023/04/11 03:02:00;;;;;;;10.50;5.88;;;;;;;11.74;100.00;100513.94;2070909;28;20058;-88
2023/04/11 03:03:23;;;;;;;10.82;6.47;;;;;;;11.72;100.00;100523.59;2067314;28;20413;-87
2023/04/11 03:04:45;;;;;;;10.10;6.50;;;;;;;11.72;100.00;100520.94;2069261;28;20042;-87
2023/04/11 03:06:11;;;;;;;10.52;6.28;;;;;;;11.73;100.00;100522.72;2067259;28;20674;-87
2023/04/11 03:07:37;;;;;;;11.02;6.85;;;;;;;11.73;100.00;100504.22;2066723;28;20045;-88
2023/04/11 03:09:00;;;;;;;11.38;6.63;;;;;;;11.73;100.00;100512.16;2062148;28;20049;-88
2023/04/11 03:10:25;;;;;;;11.45;6.72;;;;;;;11.73;100.00;100505.97;2067567;28;20045;-87
2023/04/11 03:11:46;;;;;;;11.23;6.00;;;;;;;11.71;100.00;100513.00;2064318;28;20487;-89
2023/04/11 03:13:10;;;;;;;11.05;6.57;;;;;;;11.71;100.00;100507.72;2067535;28;20045;-87
2023/04/11 03:14:31;;;;;;;13.85;7.45;;;;;;;11.67;100.00;100504.16;2063812;28;20045;-88
2023/04/11 03:15:56;;;;;;;9.07;6.30;;;;;;;11.65;100.00;100502.38;2069654;28;20667;-87
2023/04/11 03:17:23;;;;;;;12.95;7.90;;;;;;;11.61;100.00;100506.78;2059975;28;20042;-87
2023/04/11 03:18:45;;;;;;;11.77;6.53;;;;;;;11.54;100.00;100504.97;2065645;28;20076;-88
2023/04/11 03:20:10;;;;;;;11.45;6.47;;;;;;;11.48;100.00;100511.09;2069117;28;20042;-89
2023/04/11 03:21:32;;;;;;;13.82;7.07;;;;;;;11.46;100.00;100496.97;2068224;28;20092;-88
2023/04/11 03:22:55;;;;;;;10.70;6.25;;;;;;;11.46;100.00;100510.19;2061557;28;20051;-88
2023/04/11 03:24:19;;;;;;;12.85;8.52;;;;;;;11.44;100.00;100493.41;2067831;28;20406;-87
2023/04/11 03:25:43;;;;;;;12.82;6.95;;;;;;;11.43;100.00;100504.84;2073818;28;20045;-87
2023/04/11 03:27:06;;;;;;;12.40;7.82;;;;;;;11.43;100.00;100501.31;2070020;28;20050;-87
2023/04/11 03:28:29;;;;;;;14.15;8.55;;;;;;;11.40;100.00;100494.28;2074931;28;20073;-88
2023/04/11 03:29:51;;;;;;;14.00;8.57;;;;;;;11.39;100.00;100499.53;2076842;28;20053;-88
2023/04/11 03:31:22;;;;;;;15.02;8.02;;;;;;;11.36;100.00;100502.16;2067074;28;20072;-87
2023/04/11 03:32:47;;;;;;;12.80;7.55;;;;;;;11.31;100.00;100499.47;2069071;28;20077;-88
2023/04/11 03:34:10;;;;;;;14.80;7.80;;;;;;;11.29;100.00;100501.22;2077130;28;20049;-88
2023/04/11 03:35:36;;;;;;;14.95;7.93;;;;;;;11.28;100.00;100507.41;2073015;28;20060;-88
2023/04/11 03:36:59;;;;;;;17.88;11.15;;;;;;;11.26;100.00;100501.19;2068998;28;20543;-88
2023/04/11 03:38:20;;;;;;;22.40;17.40;;;;;;;11.28;100.00;100509.16;2073749;28;20057;-87
2023/04/11 03:39:43;;;;;;;33.97;24.75;;;;;;;11.27;100.00;100513.53;2068355;28;20042;-86
2023/04/11 03:41:08;;;;;;;43.20;32.45;;;;;;;11.28;100.00;100509.16;2065602;28;20035;-88
2023/04/11 03:42:31;;;;;;;36.40;28.80;;;;;;;11.29;100.00;100510.94;2069322;28;20196;-88
2023/04/11 03:43:56;;;;;;;33.35;24.38;;;;;;;11.31;100.00;100517.09;2063566;28;20443;-85
2023/04/11 03:45:19;;;;;;;36.70;27.52;;;;;;;11.33;100.00;100508.31;2075190;28;20042;-85
2023/04/11 03:46:41;;;;;;;17.15;11.38;;;;;;;11.34;100.00;100515.38;2071754;28;20083;-84
2023/04/11 03:48:04;;;;;;;20.98;14.20;;;;;;;11.33;100.00;100512.72;2070310;28;20556;-85
2023/04/11 03:49:40;;;;;;;16.10;11.30;;;;;;;11.32;100.00;100518.84;2080232;28;20496;-88
2023/04/11 03:51:01;;;;;;;13.20;7.97;;;;;;;11.36;100.00;100515.34;2073812;28;20042;-88
2023/04/11 03:52:33;;;;;;;13.80;9.40;;;;;;;11.40;100.00;100518.06;2072566;28;20050;-88
2023/04/11 03:53:58;;;;;;;10.52;7.07;;;;;;;11.42;100.00;100515.44;2071395;28;20037;-87
2023/04/11 03:55:25;;;;;;;11.40;7.45;;;;;;;11.38;100.00;100516.28;2071788;28;20049;-87
2023/04/11 03:56:50;;;;;;;10.25;6.13;;;;;;;11.38;100.00;100517.16;2080208;28;20455;-86
2023/04/11 03:58:16;;;;;;;9.98;5.75;;;;;;;11.42;100.00;100524.22;2080308;28;20076;-86
2023/04/11 03:59:39;;;;;;;10.38;5.78;;;;;;;11.48;100.00;100519.03;2076501;28;20047;-87
2023/04/11 04:01:05;;;;;;;20.92;13.88;;;;;;;11.53;100.00;100529.63;2077191;28;20445;-86
2023/04/11 04:02:28;;;;;;;14.45;9.85;;;;;;;11.53;100.00;100530.50;2076901;28;20041;-86
2023/04/11 04:03:49;;;;;;;15.23;10.85;;;;;;;11.52;100.00;100539.31;2068165;28;20046;-85
2023/04/11 04:05:12;;;;;;;14.32;8.82;;;;;;;11.51;100.00;100534.00;2068499;28;20066;-85
2023/04/11 04:06:34;;;;;;;14.80;7.38;;;;;;;11.51;100.00;100532.25;2067656;28;20130;-85
2023/04/11 04:07:57;;;;;;;;;;;;;;;11.51;100.00;100539.28;2066185;28;20078;-86
2023/04/11 04:09:32;;;;;;;12.13;6.90;;;;;;;11.47;100.00;100540.13;2063714;28;19933;-86
2023/04/11 04:10:53;;;;;;;14.00;7.05;;;;;;;11.47;100.00;100526.94;2062744;28;20050;-85
2023/04/11 04:12:18;;;;;;;12.82;7.07;;;;;;;11.51;100.00;100534.00;2068453;28;20145;-85
2023/04/11 04:14:01;;;;;;;13.23;6.88;;;;;;;11.55;100.00;100536.66;2065477;28;20065;-84
2023/04/11 04:15:23;;;;;;;14.88;7.20;;;;;;;11.61;100.00;100541.13;2071488;28;20147;-85
2023/04/11 04:16:44;;;;;;;12.55;6.80;;;;;;;11.67;100.00;100535.91;2069257;28;20041;-85
2023/04/11 04:18:12;;;;;;;15.55;6.88;;;;;;;11.70;100.00;100543.84;2077693;28;20429;-86
2023/04/11 04:19:39;;;;;;;12.20;6.60;;;;;;;11.75;100.00;100543.94;2077712;28;20073;-86
2023/04/11 04:21:01;;;;;;;13.30;6.78;;;;;;;11.81;100.00;100539.56;2068332;28;20093;-87
2023/04/11 04:22:25;;;;;;;16.80;8.63;;;;;;;11.84;100.00;100538.69;2068840;28;20128;-86
2023/04/11 04:23:52;;;;;;;14.55;8.07;;;;;;;11.85;100.00;100540.47;2069675;28;20521;-85
2023/04/11 04:25:23;;;;;;;15.93;6.90;;;;;;;11.82;100.00;100541.31;2069969;28;20095;-85
2023/04/11 04:26:48;;;;;;;;;;;;;;;11.79;100.00;100535.13;2068945;28;20042;-85
2023/04/11 04:28:30;;;;;;;10.40;6.33;;;;;;;11.79;100.00;100541.31;2073670;28;20023;-85
2023/04/11 04:29:55;;;;;;;10.23;5.97;;;;;;;11.80;100.00;100536.91;2077102;28;21074;-84
2023/04/11 04:31:24;;;;;;;11.88;6.10;;;;;;;11.80;100.00;100532.50;2071354;28;20042;-85
2023/04/11 04:32:53;;;;;;;10.95;6.20;;;;;;;11.79;100.00;100533.38;2080342;28;20052;-85
2023/04/11 04:34:20;;;;;;;12.32;5.93;;;;;;;11.79;100.00;100535.13;2071374;28;20042;-84
2023/04/11 04:35:43;;;;;;;12.63;5.38;;;;;;;11.81;100.00;100534.28;2072927;28;20560;-85
2023/04/11 04:37:04;;;;;;;8.93;4.93;;;;;;;11.81;100.00;100534.28;2080440;28;20071;-85
2023/04/11 04:38:37;;;;;;;10.50;4.80;;;;;;;11.82;100.00;100541.31;2073397;28;20438;-85
2023/04/11 04:40:01;;;;;;;13.57;6.43;;;;;;;11.79;100.00;100536.00;2069462;28;20488;-85
2023/04/11 04:41:32;;;;;;;10.98;6.38;;;;;;;11.80;100.00;100542.19;2068108;28;20050;-85
2023/04/11 04:42:58;;;;;;;17.90;11.15;;;;;;;11.78;100.00;100541.28;2070798;28;20038;-85
2023/04/11 04:44:32;;;;;;;20.35;14.60;;;;;;;11.79;100.00;100551.00;2072376;28;20149;-85
2023/04/11 04:45:58;;;;;;;15.95;9.23;;;;;;;11.83;100.00;100555.41;2061231;28;20044;-86
2023/04/11 04:47:31;;;;;;;16.38;9.85;;;;;;;11.88;100.00;100559.00;2062018;28;20054;-86
2023/04/11 04:48:53;;;;;;;24.98;19.80;;;;;;;11.85;100.00;100562.50;2062527;28;20061;-87
2023/04/11 04:50:16;;;;;;;25.67;22.45;;;;;;;11.83;100.00;100569.53;2067202;28;20053;-88
2023/04/11 04:51:39;;;;;;;32.13;28.17;;;;;;;11.83;100.00;100569.53;2076356;28;20049;-88
2023/04/11 04:53:01;;;;;;;24.38;18.08;;;;;;;11.86;100.00;100573.97;2070852;28;20056;-86
2023/04/11 04:54:22;;;;;;;23.33;16.45;;;;;;;11.84;100.00;100571.31;2070260;28;20038;-86
2023/04/11 04:55:45;;;;;;;18.02;12.75;;;;;;;11.82;100.00;100573.03;2070547;28;20042;-86
2023/04/11 04:57:07;;;;;;;39.58;24.67;;;;;;;11.83;100.00;100576.56;2076220;28;20045;-85
2023/04/11 04:58:30;;;;;;;30.00;21.60;;;;;;;11.86;100.00;100580.16;2073128;28;20092;-87
2023/04/11 04:59:58;;;;;;;16.77;9.80;;;;;;;11.91;100.00;100588.09;2068527;28;20061;-87
2023/04/11 05:01:20;;;;;;;15.18;9.15;;;;;;;11.92;100.00;100585.47;2072073;28;20042;-87
2023/04/11 05:02:46;;;;;;;17.85;10.43;;;;;;;11.93;100.00;100587.25;2074695;28;20489;-86
2023/04/11 05:04:09;;;;;;;15.85;8.70;;;;;;;11.95;100.00;100592.53;2067755;28;20148;-87
2023/04/11 05:05:49;;;;;;;15.68;7.90;;;;;;;11.93;100.00;100589.91;2070907;28;20038;-86
2023/04/11 05:07:13;;;;;;;14.95;7.78;;;;;;;11.93;100.00;100592.53;2062427;28;20042;-86
2023/04/11 05:08:35;;;;;;;13.43;7.63;;;;;;;11.95;100.00;100597.81;2070891;28;20494;-88
2023/04/11 05:10:01;;;;;;;13.65;7.60;;;;;;;11.98;100.00;100595.22;2070899;28;20128;-88
2023/04/11 05:11:23;;;;;;;14.90;7.88;;;;;;;12.00;100.00;100589.94;2066577;28;20100;-87
2023/04/11 05:12:45;;;;;;;14.65;7.75;;;;;;;12.02;100.00;100591.69;2067833;28;20042;-88
2023/04/11 05:14:07;;;;;;;14.63;8.23;;;;;;;12.06;100.00;100593.50;2063181;28;20057;-87
2023/04/11 05:15:31;;;;;;;12.85;7.25;;;;;;;12.11;100.00;100602.34;2070113;28;20156;-89
2023/04/11 05:16:54;;;;;;;16.10;7.45;;;;;;;12.11;100.00;100604.13;2071002;28;20430;-89
2023/04/11 05:18:17;;;;;;;13.68;7.00;;;;;;;12.12;100.00;100601.50;2062286;28;20046;-88
2023/04/11 05:19:40;;;;;;;11.50;6.95;;;;;;;12.19;100.00;100605.06;2059875;28;20046;-89
2023/04/11 05:21:01;;;;;;;13.82;8.20;;;;;;;12.21;100.00;100608.56;2064477;28;20129;-89
2023/04/11 05:22:30;;;;;;;16.25;8.38;;;;;;;12.18;100.00;100608.56;2069388;28;20104;-86
2023/04/11 05:23:53;;;;;;;14.43;6.15;;;;;;;12.18;100.00;100609.47;2065747;28;20060;-88
2023/04/11 05:25:16;;;;;;;12.48;6.75;;;;;;;12.22;100.00;100610.34;2067281;28;20038;-88
2023/04/11 05:26:39;;;;;;;12.55;6.22;;;;;;;12.29;100.00;100609.53;2074728;28;20049;-88
2023/04/11 05:28:05;;;;;;;10.15;4.82;;;;;;;12.35;100.00;100610.44;2050317;28;20127;-87
2023/04/11 05:29:28;;;;;;;9.77;5.03;;;;;;;12.40;100.00;100606.97;2072436;28;20149;-86
2023/04/11 05:30:53;;;;;;;22.48;9.02;;;;;;;12.44;100.00;100606.09;2070714;28;20046;-85
2023/04/11 05:32:15;;;;;;;49.50;22.20;;;;;;;12.51;100.00;100607.88;2067699;28;20046;-85
2023/04/11 05:33:37;;;;;;;13.50;7.88;;;;;;;12.56;100.00;100604.38;2068039;28;20065;-86
2023/04/11 05:35:00;;;;;;;32.88;12.88;;;;;;;12.61;100.00;100599.09;2067745;28;20050;-86
2023/04/11 05:36:31;;;;;;;18.67;9.80;;;;;;;12.62;100.00;100607.06;2079630;28;20542;-86
2023/04/11 05:37:52;;;;;;;12.73;5.70;;;;;;;12.60;100.00;100607.94;2078473;28;20145;-89
2023/04/11 05:39:15;;;;;;;16.40;11.10;;;;;;;12.51;100.00;100605.25;2069671;28;20045;-88
2023/04/11 05:40:36;;;;;;;14.73;10.50;;;;;;;12.46;100.00;100604.34;2075956;28;20494;-88
2023/04/11 05:41:59;;;;;;;13.82;11.13;;;;;;;12.42;100.00;100605.19;2070162;28;20057;-88
2023/04/11 05:43:20;;;;;;;15.18;6.32;;;;;;;12.36;100.00;100606.03;2076183;28;20067;-88
2023/04/11 05:44:43;;;;;;;16.70;8.63;;;;;;;12.33;100.00;100606.03;2078168;28;20140;-87
2023/04/11 05:46:09;;;;;;;29.38;24.38;;;;;;;12.31;100.00;100600.72;2070138;28;20149;-88
2023/04/11 05:47:32;;;;;;;13.02;7.75;;;;;;;12.25;100.00;100605.97;2068788;28;20049;-87
2023/04/11 05:48:56;;;;;;;22.15;8.70;;;;;;;12.22;100.00;100611.25;2075825;28;20421;-89
2023/04/11 05:50:19;;;;;;;19.85;8.43;;;;;;;12.18;100.00;100605.94;2078370;28;20044;-89
2023/04/11 05:51:42;;;;;;;14.82;5.97;;;;;;;12.16;100.00;100603.25;2074104;28;20561;-88
2023/04/11 05:53:05;;;;;;;17.60;8.27;;;;;;;12.13;100.00;100608.56;2074997;28;20136;-90
2023/04/11 05:54:33;;;;;;;13.40;5.93;;;;;;;12.08;100.00;100610.25;2070278;28;20059;-89
2023/04/11 05:55:55;;;;;;;12.43;5.15;;;;;;;12.04;100.00;100616.41;2069688;28;20128;-90
2023/04/11 05:57:17;;;;;;;13.07;7.13;;;;;;;12.00;100.00;100611.09;2067480;28;20046;-89
2023/04/11 05:58:42;;;;;;;13.40;6.82;;;;;;;11.98;100.00;100616.38;2068324;28;20137;-91
2023/04/11 06:00:11;;;;;;;18.10;9.20;;;;;;;11.96;100.00;100613.72;2069460;28;20053;-90
2023/04/11 06:01:38;;;;;;;17.40;7.47;;;;;;;11.96;100.00;100616.34;2070777;28;20052;-90
2023/04/11 06:03:01;;;;;;;12.82;6.32;;;;;;;11.94;100.00;100612.84;2072369;28;20084;-89
2023/04/11 06:04:24;;;;;;;13.50;5.40;;;;;;;11.96;100.00;100615.47;2077659;28;20517;-90
2023/04/11 06:05:47;;;;;;;11.50;6.07;;;;;;;11.96;100.00;100613.72;2070806;28;20537;-90
2023/04/11 06:07:10;;;;;;;10.70;5.40;;;;;;;12.04;100.00;100621.72;2068061;28;20080;-90
2023/04/11 06:08:33;;;;;;;12.00;5.13;;;;;;;12.09;100.00;100624.38;2079015;28;20452;-90
2023/04/11 06:09:55;;;;;;;10.52;5.00;;;;;;;12.11;100.00;100630.56;2076625;28;20069;-89
2023/04/11 06:11:18;;;;;;;11.90;5.57;;;;;;;12.17;100.00;100627.97;2081205;28;20049;-89
2023/04/11 06:12:39;;;;;;;10.43;5.15;;;;;;;12.21;100.00;100621.81;2078229;28;20580;-90
2023/04/11 06:14:02;;;;;;;13.27;5.53;;;;;;;12.25;100.00;100623.63;2069291;28;20052;-89
2023/04/11 06:15:25;;;;;;;8.32;4.25;;;;;;;12.28;100.00;100621.88;2063860;28;20038;-89
2023/04/11 06:16:49;;;;;;;9.43;4.60;;;;;;;12.31;100.00;100624.53;2067737;28;20049;-89
2023/04/11 06:18:12;;;;;;;11.00;4.82;;;;;;;12.32;100.00;100614.84;2065285;28;20034;-89
2023/04/11 06:19:33;;;;;;;8.40;3.97;;;;;;;12.36;100.00;100621.91;2058796;28;20084;-88
2023/04/11 06:20:56;;;;;;;7.38;3.78;;;;;;;12.36;100.00;100628.09;2066480;28;20136;-89